Central Sonoma County Latest

37 Stations

15 Minute Data | America/Los_Angeles
as of 5/9/26 12:36 PM PDT
Station Date Time Temp (°F) RH (%) Dew Pt (°F) Wind Spd (mph) Wind Dir (°) Wind Gust (mph) Latest Rain (In) Daily Rain (In) Daily Max Temp (°F) Daily Min Temp (°F)
Windsor-NW (Ranch 8) 5/9/26 1230 76.0   4.2 55   7 58.6   0.7 3.3   1.5 WSW | 243 8.4   3.7 0.00 0.00 76.3   3.2 48.2   3.0
Windsor-East (Ranch 16) 5/9/26 1230 75.0   6.8 46   15 53.1   1.4 3.1   1.5 S | 188 6.7   1.8 0.00 0.00 75.4   6.4 45.2   6.8
Mark West-North (Ranch 14) 5/9/26 1230 74.4   7.2 48   14 53.2   0.2 2.7   0.4 S | 182 6.5   0.8 0.00 0.00 75.2   7.0 47.0   4.8
Windsor-SE (Silk Rd) 5/9/26 1215 72.8   6.1 50   13 53.3   0.7 2.7   0.3 SSE | 167 7.0   0.3 0.00 0.00 73.3   6.0 44.5   7.1
Fulton-NW (Ranch 5) 5/9/26 1230 74.8   7.1 49   13 54.2   0.0 3.2   0.5 SSE | 167 5.9   2.2 0.00 0.00 75.6   7.2 46.3   5.3
Bisordi (Fulton) 5/9/26 1230 74.5   7.3 57   15 58.3   0.5 2.9   0.3 WSW | 240 7.2   1.2 0.00 0.00 74.5   6.6 46.2   5.7
Windsor-South (Laughlin Rd) 5/9/26 1230 75.8   6.3 46   12 53.6   0.8 - - - 0.00 0.00 77.2   7.0 46.5   4.9
Fulton-SE (Barnes Rd) 5/9/26 1230 74.9   7.2 47   16 53.1   1.5 0.0   0.0 N | 0 0.0   0.0 0.00 0.00 75.8   7.7 47.2   4.9
Fulton-SW (Ranch 21) 5/9/26 1230 74.0   7.7 50   15 54.1   0.1 3.7   0.6 SSW | 196 8.8   0.4 0.00 0.00 74.3   7.4 46.1   5.0
NW Santa Rosa (Piner Road) 5/9/26 1230 73.4   7.9 59   16 58.2   0.9 3.2   1.0 S | 181 9.4   3.7 0.00 0.00 74.0   7.8 45.5   5.8
River Rd South (Denner Ranch) 5/9/26 1230 75.0   7.7 53   10 56.5   2.2 5.5   0.8 SSE | 150 10.3   1.5 - - 75.7   7.6 44.5   6.4
West Santa Rosa (LOV Vineyard) 5/9/26 1230 73.1   7.2 55   11 55.9   1.7 2.8   0.7 S | 176 7.5   0.9 0.00 0.00 73.9   7.6 45.7   5.4
Guerneville Rd (Prokopakis) 5/9/26 1230 78.3   7.9 50   9 58.2   2.8 - - - 0.00 0.00 79.0   7.8 46.6   4.9
SunnyView Vineyard (SCWC) 5/9/26 1230 75.2   7.9 50   12 55.3   1.2 2.2   0.4 S | 180 8.0   0.3 0.00 0.00 75.7   7.9 43.6   7.3
Guerneville Rd West (Balletto) 5/9/26 1230 73.4   7.2 61   9 59.2   3.0 4.6   0.4 SSE | 160 9.9   0.3 0.00 0.00 74.4   7.0 45.4   5.9
Sanchietti Ranch 5/9/26 1230 74.7   7.8 65   9 62.0   3.9 4.6   0.2 S | 174 10.7   2.0 0.00 0.00 75.0   7.9 46.2   5.8
Occidental Rd (Sebastopol) 5/9/26 1230 73.8   7.0 91   9 71.1   4.3 3.8   1.1 S | 181 9.4   2.2 0.00 0.00 75.2   7.1 45.0   5.7
Harper's Rest (Windsor-West) 5/9/26 1230 74.7   5.0 49   10 54.5   0.3 2.9   0.0 ESE | 114 6.6   0.2 0.00 0.00 75.2   5.0 44.2   5.7
Lower Westside Rd (Ranch 12) 5/9/26 1230 76.5   5.4 47   10 54.7   0.1 3.2   0.3 SE | 132 7.5   0.3 0.00 0.00 77.6   5.9 45.4   5.9
Guerneville (Laughlin Rd) 5/9/26 1230 80.1   6.7 43   10 55.4   0.3 3.4   1.2 SSE | 162 8.8   2.5 0.00 0.00 80.1   6.5 48.2   2.6
Korbel (Winery) 5/9/26 1230 79.1   6.2 49   5 58.2   3.2 2.0   0.6 E | 86 6.1   0.5 0.00 0.00 79.2   6.4 49.9   1.8
Forestville (Shone Farms) 5/9/26 1230 75.0   5.4 51   9 55.8   0.5 3.8   0.3 E | 100 8.6   0.3 0.00 0.00 76.3   5.3 46.0   3.9
Forestville-NE (Ranch 30) 5/9/26 1230 77.4   7.1 55   10 59.9   1.9 3.1   1.5 S | 189 7.7   2.2 0.00 0.00 79.2   8.2 44.7   6.1
Foggy Bend (Ranch 41) 5/9/26 1230 76.0   6.7 56   10 59.2   1.6 2.3   0.2 SSE | 160 8.7   3.1 0.00 0.00 76.8   6.2 46.1   5.8
Last Stop 5/9/26 1230 75.8   7.1 57   10 59.4   2.1 4.3   0.3 SE | 133 8.7   1.0 0.00 0.00 76.1   6.5 43.8   7.5
Green Valley Vineyard 5/9/26 1230 73.6   6.8 58   9 57.8   2.4 3.4   0.1 SE | 134 9.6   1.1 0.00 0.00 74.3   6.6 45.4   4.8
Park Royal 5/9/26 1230 74.3   7.7 47   15 53.0   0.2 - - - 0.00 0.00 74.9   7.7 45.2   5.4
Merino 5/9/26 1230 73.3   7.5 60   14 58.7   1.5 4.5   0.8 S | 181 8.9   0.4 0.00 0.00 73.5   7.0 43.6   7.4
Green Valley (Sanchietti) 5/9/26 1230 76.3   8.2 - - - - - - - 77.2   6.6 44.1   7.6
Keefer Ranch (Green Valley) 5/9/26 1230 72.9   5.8 63   7 59.8   2.6 - - - 0.00 0.00 73.5   6.2 43.8   7.6
Graton-West (Dutton Ranch) 5/9/26 1230 74.0   5.5 67   21 62.3   2.6 4.3   1.2 SSE | 159 9.7   0.6 0.00 0.00 74.8   5.1 45.2   6.2
Graton-South (Mill Station Rd) 5/9/26 1230 69.0   3.7 64   5 56.3   1.4 3.1   2.0 SSW | 192 6.0   1.4 0.00 0.00 70.2   3.7 44.7   5.6
Occidental (Horseshoe Bend) 5/9/26 1230 67.6   4.5 67   9 56.1   0.9 - - - 0.00 0.00 68.0   4.5 49.3   0.8
Sexton Valley (Jacqueline's Blk) 5/9/26 1230 69.3   3.8 70   4 59.0   2.3 2.2   0.1 WSW | 244 6.6   0.3 0.00 0.00 71.0   5.1 44.3   6.5
Sebastopol Hills (Burnside Rd) 5/9/26 1230 66.1   3.4 74   6 57.4   1.1 5.7   3.2 SSW | 208 8.9   2.0 0.00 0.00 66.7   2.9 47.3   2.0
Pleasant Hill 5/9/26 1230 71.0   5.5 60   7 56.5   2.2 4.4   1.5 SW | 234 10.1   3.3 0.00 0.00 71.8   5.6 44.1   5.5
Seaview/Fort Ross (Hirsch) 5/9/26 1230 70.2   3.0 62   7 56.5   5.9 3.0   2.7 WSW | 238 5.6   4.4 0.00 0.00 70.7   3.0 54.4   10.5
Max     80.1 91 71.1 5.7 - 10.7 0.00 0.00 80.1 54.4
Avg     74.1 56 57.2 3.4 - 7.9 0.00 - - -
Min     66.1 43 53.0 0.0 - 0.0 0.00 0.00 66.7 43.6